Terminal Aerodrome Forecast
Issued by NWS Wakefield, VA

Home | Current Version | Previous Version | Text Only | Print | Product List | Glossary On
Versions: 1 2 3 4 5 6 7 8 9 10 11 12 13
000
FTUS41 KAKQ 271100
TAFECG
TAF
KECG 271138Z 2712/2812 00000KT 2SM BR SCT002
     FM271300 24005KT P6SM SCT200
     FM271700 18006KT P6SM SCT150
     FM280400 20005KT P6SM BKN100=

USA.gov is the U.S. government's official web portal to all federal, state and local government web resources and services.